Pagrindinis puslapis
METAR-TAF:

METAR-TAF

Oro uostai :

Sogndalis, Norvegija

platuma: 61-09N, ilguma: 007-08E, Aukštis: 49 m

Dabartinis oras

Ataskaita buvo paskelbta 11 minutes, ne 12:20 UTC
Vėjas 5 kt iš Rytų/Šiaurės Rytų
Temperatūra 9°C
Drėgmė 100%
Slėgis 1014 hPa
Matomumas 10 km arba daugiau
Mažai debesys
Išsisklaidę debesys ne aukštis 3000 ft
Su prošvaistėmis ne aukštis 4000 ft
lietus

METAR: ENSG 221220Z 06005KT 9999 -RA FEW/// SCT030 BKN040 09/09 Q1014 RMK WIND 3806FT 18013KT

Laikas: 14:31 (12:31 UTC)


TAF: trūkstamas

Orai ataskaitas ir orų prognozės (METAR, TAF).

turimą stotys yra geltonos ir raudonos taškus žemėlapyje.

Perkelti pele per norėdami pamatyti stoties vardą.

Tada spustelėkite, norėdami matyti oro stebėjimo ir prognozės.

Norėdami pakeisti žemėlapį: spustelėkite ant žalios mygtukų su juodo kryžiaus žemyn,; žalią mygtuką su brūkšneliu, jei norite nutolinti; arba žalių rodyklių gretimoms žemėlapius.


METAR-TAF: